createdAt,value
2022-09-28T00:00:36.516Z,0
2022-09-28T00:01:36.731Z,0
2022-09-28T00:02:37.114Z,0
2022-09-28T00:03:37.510Z,0
2022-09-28T00:04:37.634Z,0
2022-09-28T00:05:37.756Z,0
2022-09-28T00:06:37.885Z,0
2022-09-28T00:07:38.017Z,0
2022-09-28T00:08:38.139Z,0
2022-09-28T00:09:38.268Z,0
2022-09-28T00:10:38.389Z,0
2022-09-28T00:11:38.515Z,0
2022-09-28T00:12:38.643Z,0
2022-09-28T00:13:38.770Z,0
2022-09-28T00:14:38.893Z,0
2022-09-28T00:15:39.019Z,0
2022-09-28T00:16:39.226Z,0
2022-09-28T00:17:39.633Z,0
2022-09-28T00:18:39.756Z,0
2022-09-28T00:19:39.880Z,0
2022-09-28T00:20:40.003Z,0
2022-09-28T00:21:40.127Z,0
2022-09-28T00:22:40.257Z,0
2022-09-28T00:23:40.384Z,0
2022-09-28T00:24:40.517Z,0
2022-09-28T00:25:40.640Z,0
2022-09-28T00:26:40.767Z,0
2022-09-28T00:27:40.893Z,0
2022-09-28T00:28:41.020Z,0
2022-09-28T00:29:41.151Z,0
2022-09-28T00:30:41.267Z,0
2022-09-28T00:31:41.458Z,0
2022-09-28T00:32:41.722Z,0
2022-09-28T00:33:41.847Z,0
2022-09-28T00:34:41.973Z,0
2022-09-28T00:35:42.095Z,0
2022-09-28T00:36:42.217Z,0
2022-09-28T00:37:42.338Z,0
2022-09-28T00:38:42.462Z,0
2022-09-28T00:39:42.586Z,0
2022-09-28T00:40:42.752Z,0
2022-09-28T00:41:43.084Z,0
2022-09-28T00:42:43.212Z,0
2022-09-28T00:43:43.341Z,0
2022-09-28T00:44:43.468Z,0
2022-09-28T00:45:43.648Z,0
2022-09-28T00:46:43.935Z,0
2022-09-28T00:47:44.062Z,0
2022-09-28T00:48:44.183Z,0
2022-09-28T00:49:44.306Z,0
2022-09-28T00:50:44.440Z,0
2022-09-28T00:51:44.566Z,0
2022-09-28T00:52:44.694Z,0
2022-09-28T00:53:44.819Z,0
2022-09-28T00:54:44.944Z,0
2022-09-28T00:55:45.069Z,0
2022-09-28T00:56:45.203Z,0
2022-09-28T00:57:45.327Z,0
2022-09-28T00:58:45.447Z,0
2022-09-28T00:59:45.577Z,0
2022-09-28T01:00:45.752Z,0
2022-09-28T01:01:46.138Z,0
2022-09-28T01:02:46.397Z,0
2022-09-28T01:03:46.525Z,0
2022-09-28T01:04:46.659Z,0
2022-09-28T01:05:46.790Z,0
2022-09-28T01:06:46.921Z,0
2022-09-28T01:07:47.050Z,0
2022-09-28T01:08:47.180Z,0
2022-09-28T01:09:47.310Z,0
2022-09-28T01:10:47.435Z,0
2022-09-28T01:11:47.561Z,0
2022-09-28T01:12:47.685Z,0
2022-09-28T01:13:47.820Z,0
2022-09-28T01:14:47.952Z,0
2022-09-28T01:15:48.081Z,0
2022-09-28T01:16:48.305Z,0
2022-09-28T01:17:48.847Z,0
2022-09-28T01:18:48.984Z,0
2022-09-28T01:19:49.114Z,0
2022-09-28T01:20:49.243Z,0
2022-09-28T01:21:49.370Z,0
2022-09-28T01:22:49.493Z,0
2022-09-28T01:23:49.620Z,0
2022-09-28T01:24:49.759Z,0
2022-09-28T01:25:49.885Z,0
2022-09-28T01:26:50.017Z,0
2022-09-28T01:27:50.189Z,0
2022-09-28T01:28:50.316Z,0
2022-09-28T01:29:50.445Z,0
2022-09-28T01:30:50.569Z,0
2022-09-28T01:31:50.786Z,0
2022-09-28T01:32:51.073Z,0
2022-09-28T01:33:51.199Z,0
2022-09-28T01:34:51.338Z,0
2022-09-28T01:35:51.463Z,0
2022-09-28T01:36:51.591Z,0
2022-09-28T01:37:51.725Z,0
2022-09-28T01:38:51.857Z,0
2022-09-28T01:39:51.988Z,0
2022-09-28T01:40:52.187Z,0
2022-09-28T01:41:52.538Z,0
2022-09-28T01:42:52.661Z,0
2022-09-28T01:43:52.784Z,0
2022-09-28T01:44:52.912Z,0
2022-09-28T01:45:53.059Z,0
2022-09-28T01:46:53.366Z,0
2022-09-28T01:47:53.496Z,0
2022-09-28T01:48:53.619Z,0
2022-09-28T01:49:53.755Z,0
2022-09-28T01:50:53.880Z,0
2022-09-28T01:51:54.006Z,0
2022-09-28T01:52:54.134Z,0
2022-09-28T01:53:54.263Z,0
2022-09-28T01:54:54.388Z,0
2022-09-28T01:55:54.522Z,0
2022-09-28T01:56:54.650Z,0
2022-09-28T01:57:54.771Z,0
2022-09-28T01:58:54.900Z,0
2022-09-28T01:59:55.029Z,0
2022-09-28T02:00:55.247Z,0
2022-09-28T02:01:55.575Z,0
2022-09-28T02:02:55.805Z,0
2022-09-28T02:03:55.941Z,0
2022-09-28T02:04:56.066Z,0
2022-09-28T02:05:56.199Z,0
2022-09-28T02:06:56.322Z,0
2022-09-28T02:07:56.462Z,0
2022-09-28T02:08:56.583Z,0
2022-09-28T02:09:56.721Z,0
2022-09-28T02:10:56.851Z,0
2022-09-28T02:11:56.983Z,0
2022-09-28T02:12:57.114Z,0
2022-09-28T02:13:57.242Z,0
2022-09-28T02:14:57.367Z,0
2022-09-28T02:15:57.498Z,0
2022-09-28T02:16:57.733Z,0
2022-09-28T02:17:57.863Z,0
2022-09-28T02:18:57.990Z,0
2022-09-28T02:19:58.124Z,0
2022-09-28T02:20:58.245Z,0
2022-09-28T02:21:58.364Z,0
2022-09-28T02:22:58.502Z,0
2022-09-28T02:23:58.652Z,0
2022-09-28T02:24:58.777Z,0
2022-09-28T02:25:58.903Z,0
2022-09-28T02:26:59.034Z,0
2022-09-28T02:27:59.157Z,0
2022-09-28T02:28:59.281Z,0
2022-09-28T02:29:59.426Z,0
2022-09-28T02:30:59.549Z,0
2022-09-28T02:31:59.688Z,0
2022-09-28T02:32:59.825Z,0
2022-09-28T02:33:59.945Z,0
2022-09-28T02:35:00.083Z,0
2022-09-28T02:36:00.219Z,0
2022-09-28T02:37:00.343Z,0
2022-09-28T02:38:00.468Z,0
2022-09-28T02:39:00.593Z,0
2022-09-28T02:40:00.719Z,0
2022-09-28T02:41:00.920Z,0
2022-09-28T02:42:01.325Z,0
2022-09-28T02:43:01.454Z,0
2022-09-28T02:44:01.587Z,0
2022-09-28T02:45:01.716Z,0
2022-09-28T02:46:01.888Z,0
2022-09-28T02:47:02.267Z,0
2022-09-28T02:48:02.389Z,0
2022-09-28T02:49:20.100Z,0
2022-09-28T02:50:30.730Z,0
2022-09-28T02:51:30.854Z,0
2022-09-28T02:52:30.978Z,0
2022-09-28T02:53:31.103Z,0
2022-09-28T02:54:31.241Z,0
2022-09-28T02:55:31.365Z,0
2022-09-28T02:56:31.485Z,0
2022-09-28T02:57:31.614Z,0
2022-09-28T02:58:31.745Z,0
2022-09-28T02:59:31.874Z,0
2022-09-28T03:00:32.063Z,0
2022-09-28T03:01:32.375Z,0
2022-09-28T03:02:32.545Z,0
2022-09-28T03:03:32.820Z,0
2022-09-28T03:04:32.948Z,0
2022-09-28T03:05:33.090Z,0
2022-09-28T03:06:33.224Z,0
2022-09-28T03:07:33.351Z,0
2022-09-28T03:08:33.479Z,0
2022-09-28T03:09:33.608Z,0
2022-09-28T03:10:33.776Z,0
2022-09-28T03:11:34.090Z,0
2022-09-28T03:12:34.218Z,0
2022-09-28T03:13:34.383Z,0
2022-09-28T03:14:34.519Z,0
2022-09-28T03:15:34.649Z,0
2022-09-28T03:16:34.785Z,0
2022-09-28T03:17:35.089Z,0
2022-09-28T03:18:35.206Z,0
2022-09-28T03:19:35.329Z,0
2022-09-28T03:20:35.454Z,0
2022-09-28T03:21:35.584Z,0
2022-09-28T03:22:35.712Z,0
2022-09-28T03:23:35.844Z,0
2022-09-28T03:24:35.966Z,0
2022-09-28T03:25:36.093Z,0
2022-09-28T03:26:36.220Z,0
2022-09-28T03:27:36.353Z,0
2022-09-28T03:28:36.483Z,0
2022-09-28T03:29:36.615Z,0
2022-09-28T03:30:36.743Z,0
2022-09-28T03:31:36.933Z,0
2022-09-28T03:32:37.265Z,0
2022-09-28T03:33:37.442Z,0
2022-09-28T03:34:37.565Z,0
2022-09-28T03:35:37.691Z,0
2022-09-28T03:36:37.819Z,0
2022-09-28T03:37:37.942Z,0
2022-09-28T03:38:38.066Z,0
2022-09-28T03:39:38.193Z,0
2022-09-28T03:40:38.378Z,0
2022-09-28T03:41:38.632Z,0
2022-09-28T03:42:38.809Z,0
2022-09-28T03:43:38.954Z,0
2022-09-28T03:44:39.086Z,0
2022-09-28T03:45:39.283Z,0
2022-09-28T03:46:39.572Z,0
2022-09-28T03:47:39.700Z,0
2022-09-28T03:48:39.825Z,0
2022-09-28T03:49:39.945Z,0
2022-09-28T03:50:40.065Z,0
2022-09-28T03:51:40.186Z,0
2022-09-28T03:52:40.308Z,0
2022-09-28T03:53:40.443Z,0
2022-09-28T03:54:40.564Z,0
2022-09-28T03:55:40.692Z,0
2022-09-28T03:56:40.829Z,0
2022-09-28T03:57:40.955Z,0
2022-09-28T03:58:41.084Z,0
2022-09-28T03:59:41.222Z,0
2022-09-28T04:00:41.415Z,0
2022-09-28T04:01:41.845Z,0
2022-09-28T04:02:42.185Z,0
2022-09-28T04:03:42.315Z,0
2022-09-28T04:04:42.434Z,0
2022-09-28T04:05:42.561Z,0
2022-09-28T04:06:42.691Z,0
2022-09-28T04:07:42.813Z,0
2022-09-28T04:08:42.936Z,0
2022-09-28T04:09:43.072Z,0
2022-09-28T04:10:43.194Z,0
2022-09-28T04:12:02.639Z,0
2022-09-28T04:13:04.837Z,0
2022-09-28T04:14:04.959Z,0
2022-09-28T04:15:05.080Z,0
2022-09-28T04:16:05.271Z,0
2022-09-28T04:17:05.739Z,0
2022-09-28T04:18:05.866Z,0
2022-09-28T04:19:05.989Z,0
2022-09-28T04:20:06.118Z,0
2022-09-28T04:21:06.249Z,0
2022-09-28T04:22:06.373Z,0
2022-09-28T04:23:06.512Z,0
2022-09-28T04:24:06.640Z,0
2022-09-28T04:25:06.766Z,0
2022-09-28T04:26:06.896Z,0
2022-09-28T04:27:07.027Z,0
2022-09-28T04:28:07.154Z,0
2022-09-28T04:29:07.284Z,0
2022-09-28T04:30:07.412Z,0
2022-09-28T04:31:07.540Z,0
2022-09-28T04:32:07.709Z,0
2022-09-28T04:33:07.968Z,0
2022-09-28T04:34:08.209Z,0
2022-09-28T04:35:08.351Z,0
2022-09-28T04:36:08.494Z,0
2022-09-28T04:37:08.632Z,0
2022-09-28T04:38:08.764Z,0
2022-09-28T04:39:08.893Z,0
2022-09-28T04:40:09.024Z,0
2022-09-28T04:41:09.155Z,0
2022-09-28T04:42:09.275Z,0
2022-09-28T04:43:09.409Z,0
2022-09-28T04:44:09.527Z,0
2022-09-28T04:45:09.654Z,0
2022-09-28T04:46:09.847Z,0
2022-09-28T04:47:10.156Z,0
2022-09-28T04:48:10.291Z,0
2022-09-28T04:49:10.449Z,0
2022-09-28T04:50:10.761Z,0
2022-09-28T04:51:10.932Z,0
2022-09-28T04:52:15.887Z,0
2022-09-28T04:53:18.947Z,0
2022-09-28T04:54:19.080Z,0
2022-09-28T04:55:19.206Z,0
2022-09-28T04:56:19.331Z,0
2022-09-28T04:57:19.456Z,0
2022-09-28T04:58:19.583Z,0
2022-09-28T04:59:19.712Z,0
2022-09-28T05:00:19.848Z,0
2022-09-28T05:01:20.006Z,0
2022-09-28T05:02:20.422Z,0
2022-09-28T05:03:20.774Z,0
2022-09-28T05:04:25.047Z,0
2022-09-28T05:05:26.455Z,0
2022-09-28T05:06:26.582Z,1
2022-09-28T05:07:26.710Z,2
2022-09-28T05:08:26.834Z,3
2022-09-28T05:09:26.959Z,4
2022-09-28T05:10:27.088Z,5
2022-09-28T05:11:27.210Z,6
2022-09-28T05:12:27.333Z,7
2022-09-28T05:13:27.462Z,8
2022-09-28T05:14:27.592Z,9
2022-09-28T05:15:27.716Z,10
2022-09-28T05:16:27.887Z,11
2022-09-28T05:17:28.163Z,11
2022-09-28T05:18:28.282Z,13
2022-09-28T05:19:28.403Z,13
2022-09-28T05:20:28.527Z,15
2022-09-28T05:21:28.651Z,17
2022-09-28T05:22:28.775Z,19
2022-09-28T05:23:28.908Z,21
2022-09-28T05:24:29.161Z,27
2022-09-28T05:25:29.283Z,30
2022-09-28T05:26:29.404Z,33
2022-09-28T05:27:29.529Z,37
2022-09-28T05:28:29.655Z,41
2022-09-28T05:29:32.138Z,41
2022-09-28T05:30:32.983Z,43
2022-09-28T05:31:33.142Z,46
2022-09-28T05:32:33.357Z,51
2022-09-28T05:33:33.477Z,51
2022-09-28T05:34:33.597Z,57
2022-09-28T05:35:33.727Z,63
2022-09-28T05:36:33.861Z,70
2022-09-28T05:37:33.985Z,84.96
2022-09-28T05:38:34.122Z,84.96
2022-09-28T05:39:34.253Z,94.96
2022-09-28T05:40:34.473Z,94.96
2022-09-28T05:41:34.837Z,110
2022-09-28T05:42:34.964Z,110
2022-09-28T05:43:35.087Z,130
2022-09-28T05:44:35.206Z,130
2022-09-28T05:45:35.339Z,150
2022-09-28T05:46:35.586Z,169.92
2022-09-28T05:47:35.717Z,169.92
2022-09-28T05:48:35.845Z,169.92
2022-09-28T05:49:35.975Z,169.92
2022-09-28T05:50:36.102Z,189.92
2022-09-28T05:51:36.226Z,189.92
2022-09-28T05:52:36.354Z,189.92
2022-09-28T05:53:36.475Z,189.92
2022-09-28T05:54:36.598Z,189.92
2022-09-28T05:55:36.719Z,189.92
2022-09-28T05:56:36.843Z,189.92
2022-09-28T05:57:36.969Z,189.92
2022-09-28T05:58:37.095Z,189.92
2022-09-28T05:59:37.225Z,209.92
2022-09-28T06:00:37.364Z,209.92
2022-09-28T06:01:37.558Z,240
2022-09-28T06:02:37.855Z,240
2022-09-28T06:03:38.419Z,269.92
2022-09-28T06:04:38.549Z,269.92
2022-09-28T06:05:38.690Z,269.92
2022-09-28T06:06:38.835Z,300
2022-09-28T06:07:38.982Z,300
2022-09-28T06:08:39.104Z,329.92
2022-09-28T06:09:39.227Z,329.92
2022-09-28T06:10:39.351Z,329.92
2022-09-28T06:11:39.472Z,369.92
2022-09-28T06:12:39.611Z,369.92
2022-09-28T06:13:39.737Z,409.92
2022-09-28T06:14:39.860Z,409.92
2022-09-28T06:15:39.980Z,409.92
2022-09-28T06:16:43.654Z,459.84
2022-09-28T06:17:44.324Z,469.76
2022-09-28T06:18:44.454Z,469.76
2022-09-28T06:19:44.582Z,469.76
2022-09-28T06:20:44.717Z,469.76
2022-09-28T06:21:44.849Z,469.76
2022-09-28T06:22:44.972Z,509.76
2022-09-28T06:23:48.914Z,509.76
2022-09-28T06:24:49.753Z,489.92
2022-09-28T06:25:49.886Z,489.92
2022-09-28T06:26:50.018Z,489.92
2022-09-28T06:27:50.139Z,489.92
2022-09-28T06:28:50.264Z,489.92
2022-09-28T06:29:50.398Z,489.92
2022-09-28T06:30:50.601Z,489.92
2022-09-28T06:31:50.879Z,489.92
2022-09-28T06:32:51.013Z,489.92
2022-09-28T06:33:51.141Z,539.84
2022-09-28T06:34:55.513Z,539.84
2022-09-28T06:35:56.721Z,549.76
2022-09-28T06:36:56.848Z,549.76
2022-09-28T06:37:56.979Z,549.76
2022-09-28T06:38:57.104Z,549.76
2022-09-28T06:39:57.224Z,549.76
2022-09-28T06:40:57.437Z,549.76
2022-09-28T06:41:57.841Z,549.76
2022-09-28T06:42:57.969Z,549.76
2022-09-28T06:43:58.094Z,600
2022-09-28T06:44:58.219Z,600
2022-09-28T06:45:58.376Z,659.84
2022-09-28T06:46:58.740Z,659.84
2022-09-28T06:47:58.874Z,659.84
2022-09-28T06:48:59.003Z,659.84
2022-09-28T06:49:59.135Z,659.84
2022-09-28T06:50:59.261Z,659.84
2022-09-28T06:51:59.388Z,589.76
2022-09-28T06:52:59.505Z,589.76
2022-09-28T06:53:59.653Z,529.92
2022-09-28T06:54:59.931Z,529.92
2022-09-28T06:56:00.071Z,529.92
2022-09-28T06:57:00.234Z,529.92
2022-09-28T06:58:00.362Z,529.92
2022-09-28T06:59:00.488Z,529.92
2022-09-28T07:00:00.623Z,529.92
2022-09-28T07:01:00.877Z,529.92
2022-09-28T07:02:01.300Z,529.92
2022-09-28T07:03:01.539Z,529.92
2022-09-28T07:04:01.655Z,589.76
2022-09-28T07:05:01.776Z,589.76
2022-09-28T07:06:01.905Z,589.76
2022-09-28T07:07:02.033Z,589.76
2022-09-28T07:08:02.159Z,589.76
2022-09-28T07:09:16.551Z,649.92
2022-09-28T07:10:35.081Z,720
2022-09-28T07:11:35.210Z,720
2022-09-28T07:12:35.333Z,800
2022-09-28T07:13:49.401Z,800
2022-09-28T07:14:52.032Z,789.76
2022-09-28T07:15:53.350Z,789.76
2022-09-28T07:17:10.533Z,789.76
2022-09-28T07:18:15.224Z,819.84
2022-09-28T07:19:15.551Z,819.84
2022-09-28T07:20:19.019Z,819.84
2022-09-28T07:21:28.506Z,829.44
2022-09-28T07:22:41.645Z,809.6
2022-09-28T07:23:52.073Z,779.52
2022-09-28T07:24:54.621Z,779.52
2022-09-28T07:25:54.877Z,779.52
2022-09-28T07:26:55.038Z,779.52
2022-09-28T07:27:55.162Z,779.52
2022-09-28T07:28:55.283Z,779.52
2022-09-28T07:29:55.413Z,779.52
2022-09-28T07:30:55.611Z,779.52
2022-09-28T07:31:55.888Z,880
2022-09-28T07:32:56.018Z,880
2022-09-28T07:33:56.171Z,880
2022-09-28T07:34:58.119Z,880
2022-09-28T07:35:59.302Z,969.6
2022-09-28T07:36:59.431Z,1079.68
2022-09-28T07:37:59.567Z,1079.68
2022-09-28T07:38:59.689Z,1200
2022-09-28T07:39:59.811Z,1319.68
2022-09-28T07:40:59.975Z,1319.68
2022-09-28T07:42:02.881Z,1319.68
2022-09-28T07:43:03.349Z,1459.2
2022-09-28T07:44:03.472Z,1459.2
2022-09-28T07:45:03.594Z,1459.2
2022-09-28T07:46:03.812Z,1459.2
2022-09-28T07:47:04.073Z,1459.2
2022-09-28T07:48:04.268Z,1459.2
2022-09-28T07:49:06.868Z,1459.2
2022-09-28T07:50:12.644Z,1600
2022-09-28T07:51:12.768Z,1600
2022-09-28T07:52:12.900Z,1600
2022-09-28T07:53:13.033Z,1579.52
2022-09-28T07:54:13.161Z,1579.52
2022-09-28T07:55:13.286Z,1579.52
2022-09-28T07:56:13.420Z,1579.52
2022-09-28T07:57:13.551Z,1739.52
2022-09-28T07:58:13.687Z,1739.52
2022-09-28T07:59:13.854Z,1739.52
2022-09-28T08:00:14.180Z,1739.52
2022-09-28T08:01:14.380Z,1739.52
2022-09-28T08:02:14.752Z,1739.52
2022-09-28T08:03:15.083Z,1739.52
2022-09-28T08:04:15.209Z,1739.52
2022-09-28T08:05:15.339Z,1559.04
2022-09-28T08:06:15.467Z,1559.04
2022-09-28T08:07:15.594Z,1559.04
2022-09-28T08:08:15.724Z,1399.04
2022-09-28T08:09:15.933Z,1399.04
2022-09-28T08:10:16.296Z,1259.52
2022-09-28T08:11:16.423Z,1259.52
2022-09-28T08:12:16.554Z,1259.52
2022-09-28T08:13:16.683Z,1259.52
2022-09-28T08:14:16.875Z,1259.52
2022-09-28T08:15:17.288Z,1259.52
2022-09-28T08:16:17.522Z,1259.52
2022-09-28T08:17:17.951Z,1259.52
2022-09-28T08:18:18.075Z,1259.52
2022-09-28T08:19:18.299Z,1399.04
2022-09-28T08:20:18.875Z,1399.04
2022-09-28T08:21:19.001Z,1399.04
2022-09-28T08:22:19.141Z,1539.84
2022-09-28T08:23:19.263Z,1539.84
2022-09-28T08:24:19.526Z,1539.84
2022-09-28T08:25:19.909Z,1539.84
2022-09-28T08:26:20.032Z,1539.84
2022-09-28T08:27:20.171Z,1699.84
2022-09-28T08:28:20.289Z,1699.84
2022-09-28T08:29:20.414Z,1879.04
2022-09-28T08:30:20.538Z,1879.04
2022-09-28T08:31:20.721Z,2080
2022-09-28T08:32:21.092Z,2298.88
2022-09-28T08:33:21.283Z,2298.88
2022-09-28T08:34:21.531Z,2298.88
2022-09-28T08:35:21.654Z,2298.88
2022-09-28T08:36:21.777Z,2298.88
2022-09-28T08:37:21.898Z,2298.88
2022-09-28T08:38:22.019Z,2298.88
2022-09-28T08:39:22.145Z,2298.88
2022-09-28T08:40:22.367Z,2298.88
2022-09-28T08:41:22.862Z,2298.88
2022-09-28T08:42:23.124Z,2138.88
2022-09-28T08:43:23.247Z,2138.88
2022-09-28T08:44:23.371Z,2138.88
2022-09-28T08:45:23.499Z,2138.88
2022-09-28T08:46:25.017Z,2138.88
2022-09-28T08:47:27.630Z,1920
2022-09-28T08:48:27.754Z,1920
2022-09-28T08:49:27.931Z,1920
2022-09-28T08:50:28.366Z,1719.04
2022-09-28T08:51:28.494Z,1539.84
2022-09-28T08:52:28.625Z,1379.84
2022-09-28T08:53:28.755Z,1239.68
2022-09-28T08:54:28.873Z,1239.68
2022-09-28T08:55:29.001Z,1099.52
2022-09-28T08:56:29.140Z,1099.52
2022-09-28T08:57:29.262Z,1099.52
2022-09-28T08:58:29.404Z,1099.52
2022-09-28T08:59:29.534Z,1099.52
2022-09-28T09:00:29.672Z,1099.52
2022-09-28T09:01:29.861Z,1099.52
2022-09-28T09:02:30.225Z,1099.52
2022-09-28T09:03:30.473Z,989.44
2022-09-28T09:04:30.606Z,989.44
2022-09-28T09:05:30.732Z,989.44
2022-09-28T09:06:30.863Z,989.44
2022-09-28T09:07:31.010Z,989.44
2022-09-28T09:08:31.132Z,1099.52
2022-09-28T09:09:31.256Z,1239.68
2022-09-28T09:10:31.388Z,1399.04
2022-09-28T09:11:31.516Z,1739.52
2022-09-28T09:12:31.643Z,2199.04
2022-09-28T09:13:31.771Z,2458.88
2022-09-28T09:14:31.898Z,2739.2
2022-09-28T09:15:32.034Z,2739.2
2022-09-28T09:16:32.224Z,2739.2
2022-09-28T09:17:32.494Z,2739.2
2022-09-28T09:18:32.621Z,2458.88
2022-09-28T09:19:32.754Z,2458.88
2022-09-28T09:20:32.883Z,2199.04
2022-09-28T09:21:33.009Z,1959.68
2022-09-28T09:22:33.139Z,1760
2022-09-28T09:23:33.272Z,1760
2022-09-28T09:24:33.394Z,1939.2
2022-09-28T09:25:37.814Z,2159.36
2022-09-28T09:26:39.101Z,2379.52
2022-09-28T09:27:39.341Z,2379.52
2022-09-28T09:28:39.480Z,2379.52
2022-09-28T09:29:39.604Z,2379.52
2022-09-28T09:30:39.761Z,2138.88
2022-09-28T09:31:40.060Z,2138.88
2022-09-28T09:32:40.190Z,2618.88
2022-09-28T09:33:40.308Z,2938.88
2022-09-28T09:34:40.430Z,3258.88
2022-09-28T09:35:40.557Z,3619.84
2022-09-28T09:36:41.311Z,3619.84
2022-09-28T09:37:41.513Z,3619.84
2022-09-28T09:38:41.644Z,3619.84
2022-09-28T09:39:41.781Z,3619.84
2022-09-28T09:40:41.964Z,3998.72
2022-09-28T09:41:42.346Z,3998.72
2022-09-28T09:42:42.470Z,3998.72
2022-09-28T09:43:42.596Z,4418.56
2022-09-28T09:44:42.722Z,4418.56
2022-09-28T09:45:42.876Z,4418.56
2022-09-28T09:46:43.153Z,4418.56
2022-09-28T09:47:43.277Z,4418.56
2022-09-28T09:48:43.395Z,4418.56
2022-09-28T09:49:43.517Z,4418.56
2022-09-28T09:50:43.645Z,4418.56
2022-09-28T09:51:43.774Z,4418.56
2022-09-28T09:52:44.406Z,4418.56
2022-09-28T09:53:44.644Z,4579.84
2022-09-28T09:54:44.782Z,4579.84
2022-09-28T09:55:44.911Z,4579.84
2022-09-28T09:56:45.047Z,4579.84
2022-09-28T09:57:45.404Z,4579.84
2022-09-28T09:58:45.567Z,4579.84
2022-09-28T09:59:45.704Z,4579.84
2022-09-28T10:00:45.850Z,4579.84
2022-09-28T10:01:46.019Z,4579.84
2022-09-28T10:02:46.363Z,4579.84
2022-09-28T10:03:46.674Z,4597.76
2022-09-28T10:04:46.800Z,4597.76
2022-09-28T10:05:46.934Z,4597.76
2022-09-28T10:06:47.060Z,4597.76
2022-09-28T10:07:47.182Z,4597.76
2022-09-28T10:08:47.310Z,4597.76
2022-09-28T10:09:47.437Z,4139.52
2022-09-28T10:10:47.567Z,4139.52
2022-09-28T10:11:47.695Z,4139.52
2022-09-28T10:12:49.431Z,4139.52
2022-09-28T10:13:49.945Z,4139.52
2022-09-28T10:14:50.080Z,4139.52
2022-09-28T10:15:50.245Z,4139.52
2022-09-28T10:16:50.432Z,4559.36
2022-09-28T10:17:50.742Z,4559.36
2022-09-28T10:18:50.871Z,4559.36
2022-09-28T10:19:50.997Z,4559.36
2022-09-28T10:20:51.128Z,4559.36
2022-09-28T10:21:51.251Z,4098.56
2022-09-28T10:22:51.375Z,4098.56
2022-09-28T10:23:51.506Z,3678.72
2022-09-28T10:24:51.634Z,3678.72
2022-09-28T10:25:51.762Z,3258.88
2022-09-28T10:26:51.884Z,2918.4
2022-09-28T10:27:52.018Z,2918.4
2022-09-28T10:28:52.156Z,2918.4
2022-09-28T10:29:52.294Z,2918.4
2022-09-28T10:30:52.556Z,2618.88
2022-09-28T10:31:52.956Z,2618.88
2022-09-28T10:32:53.087Z,2339.84
2022-09-28T10:33:53.215Z,2339.84
2022-09-28T10:34:53.344Z,2099.2
2022-09-28T10:35:53.464Z,2099.2
2022-09-28T10:36:53.593Z,2099.2
2022-09-28T10:37:53.722Z,2099.2
2022-09-28T10:38:53.849Z,2099.2
2022-09-28T10:39:53.974Z,1879.04
2022-09-28T10:40:54.200Z,1879.04
2022-09-28T10:41:54.736Z,1879.04
2022-09-28T10:42:54.864Z,1879.04
2022-09-28T10:43:57.989Z,1879.04
2022-09-28T10:44:58.368Z,1818.88
2022-09-28T10:45:58.526Z,1818.88
2022-09-28T10:46:58.854Z,2080
2022-09-28T10:47:58.980Z,2298.88
2022-09-28T10:48:59.106Z,2298.88
2022-09-28T10:49:59.231Z,2298.88
2022-09-28T10:50:59.356Z,2298.88
2022-09-28T10:51:59.480Z,2539.52
2022-09-28T10:52:59.612Z,2539.52
2022-09-28T10:53:59.744Z,2818.56
2022-09-28T10:54:59.875Z,3138.56
2022-09-28T10:56:00.007Z,3138.56
2022-09-28T10:57:00.188Z,3499.52
2022-09-28T10:58:00.325Z,3499.52
2022-09-28T10:59:00.452Z,3499.52
2022-09-28T11:00:00.581Z,3499.52
2022-09-28T11:01:00.731Z,3138.56
2022-09-28T11:02:01.067Z,3138.56
2022-09-28T11:03:01.455Z,2818.56
2022-09-28T11:04:01.705Z,2818.56
2022-09-28T11:05:01.846Z,2818.56
2022-09-28T11:06:01.967Z,2818.56
2022-09-28T11:07:02.233Z,2818.56
2022-09-28T11:08:02.485Z,2818.56
2022-09-28T11:09:02.611Z,2818.56
2022-09-28T11:10:02.752Z,2519.04
2022-09-28T11:11:02.921Z,2519.04
2022-09-28T11:12:03.201Z,2259.2
2022-09-28T11:13:03.380Z,2259.2
2022-09-28T11:14:03.518Z,2259.2
2022-09-28T11:15:03.650Z,2019.84
2022-09-28T11:16:03.781Z,2019.84
2022-09-28T11:17:03.982Z,2240
2022-09-28T11:18:04.345Z,2240
2022-09-28T11:19:04.480Z,2479.36
2022-09-28T11:20:04.617Z,2739.2
2022-09-28T11:21:04.751Z,3018.24
2022-09-28T11:22:04.873Z,3018.24
2022-09-28T11:23:05.002Z,3018.24
2022-09-28T11:24:05.136Z,3018.24
2022-09-28T11:25:05.273Z,3018.24
2022-09-28T11:26:05.408Z,3018.24
2022-09-28T11:27:05.529Z,3018.24
2022-09-28T11:28:05.663Z,3018.24
2022-09-28T11:29:05.788Z,3018.24
2022-09-28T11:30:05.956Z,3018.24
2022-09-28T11:31:06.338Z,3179.52
2022-09-28T11:32:06.651Z,3179.52
2022-09-28T11:33:06.780Z,3179.52
2022-09-28T11:34:06.910Z,3179.52
2022-09-28T11:35:07.047Z,3179.52
2022-09-28T11:36:07.171Z,3537.92
2022-09-28T11:37:07.293Z,3978.24
2022-09-28T11:38:07.420Z,4480
2022-09-28T11:39:07.546Z,4958.72
2022-09-28T11:40:07.672Z,4958.72
2022-09-28T11:41:07.831Z,4958.72
2022-09-28T11:42:08.103Z,4958.72
2022-09-28T11:43:14.373Z,5258.24
2022-09-28T11:44:17.305Z,5178.88
2022-09-28T11:45:17.800Z,5178.88
2022-09-28T11:46:17.992Z,5178.88
2022-09-28T11:47:18.326Z,5178.88
2022-09-28T11:48:18.455Z,5178.88
2022-09-28T11:49:18.584Z,5237.76
2022-09-28T11:50:22.869Z,5237.76
2022-09-28T11:51:24.965Z,5775.36
2022-09-28T11:52:25.106Z,5775.36
2022-09-28T11:53:25.242Z,5775.36
2022-09-28T11:54:25.365Z,5775.36
2022-09-28T11:55:25.488Z,5775.36
2022-09-28T11:56:25.613Z,5775.36
2022-09-28T11:57:25.741Z,5775.36
2022-09-28T11:58:25.873Z,5775.36
2022-09-28T11:59:26.013Z,5775.36
2022-09-28T12:00:26.138Z,5775.36
2022-09-28T12:01:26.268Z,5637.12
2022-09-28T12:02:26.505Z,5637.12
2022-09-28T12:03:27.230Z,5637.12
2022-09-28T12:04:27.730Z,5637.12
2022-09-28T12:05:27.859Z,5058.56
2022-09-28T12:06:27.988Z,5058.56
2022-09-28T12:07:28.111Z,4518.4
2022-09-28T12:08:28.234Z,4039.68
2022-09-28T12:09:28.357Z,3599.36
2022-09-28T12:10:28.487Z,3599.36
2022-09-28T12:11:28.619Z,3217.92
2022-09-28T12:12:28.746Z,3217.92
2022-09-28T12:13:28.906Z,3217.92
2022-09-28T12:14:29.030Z,3217.92
2022-09-28T12:15:29.398Z,3217.92
2022-09-28T12:17:08.172Z,3279.36
2022-09-28T12:18:09.025Z,3279.36
2022-09-28T12:19:09.331Z,3279.36
2022-09-28T12:20:09.465Z,3279.36
2022-09-28T12:21:09.597Z,3599.36
2022-09-28T12:22:09.727Z,4019.2
2022-09-28T12:23:09.861Z,4480
2022-09-28T12:24:09.990Z,4958.72
2022-09-28T12:25:10.117Z,5457.92
2022-09-28T12:26:10.250Z,6036.48
2022-09-28T12:27:10.377Z,6036.48
2022-09-28T12:28:10.498Z,6656
2022-09-28T12:29:10.655Z,6656
2022-09-28T12:30:10.895Z,6656
2022-09-28T12:31:11.101Z,6656
2022-09-28T12:32:11.447Z,6656
2022-09-28T12:33:11.581Z,6656
2022-09-28T12:34:11.707Z,6656
2022-09-28T12:35:11.838Z,6656
2022-09-28T12:36:11.966Z,6656
2022-09-28T12:37:12.091Z,5959.68
2022-09-28T12:38:12.215Z,5319.68
2022-09-28T12:39:19.264Z,5319.68
2022-09-28T12:40:58.331Z,5079.04
2022-09-28T12:41:58.758Z,4718.08
2022-09-28T12:42:58.883Z,4177.92
2022-09-28T12:43:59.010Z,3758.08
2022-09-28T12:44:59.689Z,3758.08
2022-09-28T12:46:11.359Z,3758.08
2022-09-28T12:47:13.404Z,3919.36
2022-09-28T12:48:13.798Z,3919.36
2022-09-28T12:49:56.561Z,3919.36
2022-09-28T12:51:41.655Z,3737.6
2022-09-28T12:52:43.885Z,3737.6
2022-09-28T12:53:44.270Z,3778.56
2022-09-28T12:54:44.392Z,3778.56
2022-09-28T12:55:44.529Z,3778.56
2022-09-28T12:56:44.682Z,3778.56
2022-09-28T12:57:44.810Z,3778.56
2022-09-28T12:58:44.936Z,3778.56
2022-09-28T12:59:45.059Z,3778.56
2022-09-28T13:00:45.194Z,3778.56
2022-09-28T13:01:45.373Z,3778.56
2022-09-28T13:02:45.703Z,3399.68
2022-09-28T13:03:46.001Z,3399.68
2022-09-28T13:04:46.127Z,3399.68
2022-09-28T13:05:46.254Z,3399.68
2022-09-28T13:06:46.381Z,3399.68
2022-09-28T13:07:46.505Z,3399.68
2022-09-28T13:08:46.629Z,3399.68
2022-09-28T13:09:46.755Z,3399.68
2022-09-28T13:10:46.936Z,3399.68
2022-09-28T13:11:47.060Z,3399.68
2022-09-28T13:12:47.197Z,3558.4
2022-09-28T13:13:47.329Z,3558.4
2022-09-28T13:14:47.466Z,3558.4
2022-09-28T13:15:47.599Z,3558.4
2022-09-28T13:16:47.939Z,3558.4
2022-09-28T13:17:48.072Z,3558.4
2022-09-28T13:18:48.198Z,3558.4
2022-09-28T13:19:48.334Z,3200
2022-09-28T13:20:48.460Z,3200
2022-09-28T13:21:48.586Z,3200
2022-09-28T13:22:48.713Z,3200
2022-09-28T13:23:48.841Z,2880
2022-09-28T13:24:48.974Z,2880